sensor_id;sensor_type;location;lat;lon;timestamp;pressure;altitude;pressure_sealevel;temperature;humidity
82986;BME280;72786;53.546;9.910;2024-01-30T00:00:41;102113.19;;;7.19;80.06
82986;BME280;72786;53.546;9.910;2024-01-30T00:03:07;102126.78;;;7.32;81.18
82986;BME280;72786;53.546;9.910;2024-01-30T00:05:34;102138.13;;;7.34;80.48
82986;BME280;72786;53.546;9.910;2024-01-30T00:08:00;102143.94;;;7.33;80.77
82986;BME280;72786;53.546;9.910;2024-01-30T00:10:27;102147.56;;;7.28;82.02
82986;BME280;72786;53.546;9.910;2024-01-30T00:12:53;102147.94;;;7.24;81.88
82986;BME280;72786;53.546;9.910;2024-01-30T00:15:20;102115.34;;;7.09;82.27
82986;BME280;72786;53.546;9.910;2024-01-30T00:17:46;102126.69;;;7.18;82.09
82986;BME280;72786;53.546;9.910;2024-01-30T00:20:13;102135.34;;;7.25;81.20
82986;BME280;72786;53.546;9.910;2024-01-30T00:22:39;102131.84;;;7.25;81.81
82986;BME280;72786;53.546;9.910;2024-01-30T00:25:06;102117.78;;;7.21;81.05
82986;BME280;72786;53.546;9.910;2024-01-30T00:27:32;102123.81;;;7.22;81.62
82986;BME280;72786;53.546;9.910;2024-01-30T00:29:59;102117.78;;;7.21;81.58
82986;BME280;72786;53.546;9.910;2024-01-30T00:32:25;102114.69;;;7.17;81.43
82986;BME280;72786;53.546;9.910;2024-01-30T00:34:52;102118.25;;;7.12;81.90
82986;BME280;72786;53.546;9.910;2024-01-30T00:37:18;102085.63;;;6.90;81.72
82986;BME280;72786;53.546;9.910;2024-01-30T00:39:45;102089.66;;;6.88;81.74
82986;BME280;72786;53.546;9.910;2024-01-30T00:42:11;102122.25;;;7.03;82.10
82986;BME280;72786;53.546;9.910;2024-01-30T00:44:38;102113.06;;;6.98;81.75
82986;BME280;72786;53.546;9.910;2024-01-30T00:47:05;102119.69;;;7.03;82.25
82986;BME280;72786;53.546;9.910;2024-01-30T00:49:32;102125.69;;;7.03;81.68
82986;BME280;72786;53.546;9.910;2024-01-30T00:51:58;102111.16;;;6.90;82.08
82986;BME280;72786;53.546;9.910;2024-01-30T00:54:25;102080.44;;;6.76;82.40
82986;BME280;72786;53.546;9.910;2024-01-30T00:56:51;102055.88;;;6.57;82.18
82986;BME280;72786;53.546;9.910;2024-01-30T00:59:18;102111.47;;;6.79;82.21
82986;BME280;72786;53.546;9.910;2024-01-30T01:01:44;102117.94;;;6.70;82.58
82986;BME280;72786;53.546;9.910;2024-01-30T01:04:11;102102.50;;;6.56;82.61
82986;BME280;72786;53.546;9.910;2024-01-30T01:06:37;102057.47;;;6.30;82.80
82986;BME280;72786;53.546;9.910;2024-01-30T01:09:04;102128.09;;;6.63;83.26
82986;BME280;72786;53.546;9.910;2024-01-30T01:11:30;102105.59;;;6.54;83.46
82986;BME280;72786;53.546;9.910;2024-01-30T01:13:57;102133.19;;;6.63;83.48
82986;BME280;72786;53.546;9.910;2024-01-30T01:16:24;102131.94;;;6.67;83.34
82986;BME280;72786;53.546;9.910;2024-01-30T01:18:50;102136.84;;;6.65;83.42
82986;BME280;72786;53.546;9.910;2024-01-30T01:21:17;102134.63;;;6.61;83.10
82986;BME280;72786;53.546;9.910;2024-01-30T01:23:43;102103.81;;;6.40;82.48
82986;BME280;72786;53.546;9.910;2024-01-30T01:26:10;102092.09;;;6.35;83.49
82986;BME280;72786;53.546;9.910;2024-01-30T01:28:37;102123.56;;;6.48;83.32
82986;BME280;72786;53.546;9.910;2024-01-30T01:31:05;102132.69;;;6.46;83.45
82986;BME280;72786;53.546;9.910;2024-01-30T01:33:32;102121.34;;;6.44;83.69
82986;BME280;72786;53.546;9.910;2024-01-30T01:36:00;102125.41;;;6.49;83.59
82986;BME280;72786;53.546;9.910;2024-01-30T01:38:28;102113.16;;;6.47;83.64
82986;BME280;72786;53.546;9.910;2024-01-30T01:40:55;102092.09;;;6.35;83.41
82986;BME280;72786;53.546;9.910;2024-01-30T01:43:22;102117.75;;;6.49;83.50
82986;BME280;72786;53.546;9.910;2024-01-30T01:45:48;102117.03;;;6.50;83.05
82986;BME280;72786;53.546;9.910;2024-01-30T01:48:15;102092.09;;;6.35;83.24
82986;BME280;72786;53.546;9.910;2024-01-30T01:50:42;102125.09;;;6.53;83.50
82986;BME280;72786;53.546;9.910;2024-01-30T01:53:10;102114.53;;;6.57;83.22
82986;BME280;72786;53.546;9.910;2024-01-30T01:55:37;102101.06;;;6.58;83.29
82986;BME280;72786;53.546;9.910;2024-01-30T01:58:04;102105.47;;;6.59;82.87
82986;BME280;72786;53.546;9.910;2024-01-30T02:00:31;102099.25;;;6.57;82.57
82986;BME280;72786;53.546;9.910;2024-01-30T02:02:59;102098.91;;;6.61;81.85
82986;BME280;72786;53.546;9.910;2024-01-30T02:05:26;102094.44;;;6.72;81.97
82986;BME280;72786;53.546;9.910;2024-01-30T02:07:53;102056.41;;;6.55;81.34
82986;BME280;72786;53.546;9.910;2024-01-30T02:10:20;102091.16;;;6.73;81.20
82986;BME280;72786;53.546;9.910;2024-01-30T02:12:48;102081.38;;;6.76;81.41
82986;BME280;72786;53.546;9.910;2024-01-30T02:15:14;102074.59;;;6.77;80.87
82986;BME280;72786;53.546;9.910;2024-01-30T02:17:41;102081.72;;;6.79;81.08
82986;BME280;72786;53.546;9.910;2024-01-30T02:20:08;102072.81;;;6.83;80.75
82986;BME280;72786;53.546;9.910;2024-01-30T02:22:36;102060.00;;;6.76;80.66
82986;BME280;72786;53.546;9.910;2024-01-30T02:25:03;102068.78;;;6.78;80.46
82986;BME280;72786;53.546;9.910;2024-01-30T02:27:29;102060.00;;;6.76;80.91
82986;BME280;72786;53.546;9.910;2024-01-30T02:29:56;102060.00;;;6.76;80.26
82986;BME280;72786;53.546;9.910;2024-01-30T02:32:23;102060.00;;;6.76;80.64
82986;BME280;72786;53.546;9.910;2024-01-30T02:34:49;102057.31;;;6.81;79.82
82986;BME280;72786;53.546;9.910;2024-01-30T02:37:16;102052.56;;;6.77;81.30
82986;BME280;72786;53.546;9.910;2024-01-30T02:39:43;102048.38;;;6.78;80.36
82986;BME280;72786;53.546;9.910;2024-01-30T02:42:09;102056.38;;;6.74;80.44
82986;BME280;72786;53.546;9.910;2024-01-30T02:44:35;102034.91;;;6.60;82.28
82986;BME280;72786;53.546;9.910;2024-01-30T02:47:02;102048.97;;;6.63;81.73
82986;BME280;72786;53.546;9.910;2024-01-30T02:49:29;102047.50;;;6.58;82.03
82986;BME280;72786;53.546;9.910;2024-01-30T02:51:55;102020.03;;;6.43;82.19
82986;BME280;72786;53.546;9.910;2024-01-30T02:54:23;102050.34;;;6.54;81.61
82986;BME280;72786;53.546;9.910;2024-01-30T02:56:49;102048.94;;;6.56;81.92
82986;BME280;72786;53.546;9.910;2024-01-30T02:59:16;102038.72;;;6.56;82.35
82986;BME280;72786;53.546;9.910;2024-01-30T03:01:43;102055.16;;;6.58;81.77
82986;BME280;72786;53.546;9.910;2024-01-30T03:04:10;102053.38;;;6.64;82.40
82986;BME280;72786;53.546;9.910;2024-01-30T03:06:37;102047.38;;;6.64;81.52
82986;BME280;72786;53.546;9.910;2024-01-30T03:09:04;102038.72;;;6.56;82.10
82986;BME280;72786;53.546;9.910;2024-01-30T03:11:31;102049.34;;;6.59;81.54
82986;BME280;72786;53.546;9.910;2024-01-30T03:13:57;101996.63;;;6.33;81.56
82986;BME280;72786;53.546;9.910;2024-01-30T03:16:23;102043.50;;;6.60;81.71
82986;BME280;72786;53.546;9.910;2024-01-30T03:18:50;102038.00;;;6.57;81.99
82986;BME280;72786;53.546;9.910;2024-01-30T03:21:17;102042.38;;;6.58;81.65
82986;BME280;72786;53.546;9.910;2024-01-30T03:23:43;102045.66;;;6.57;81.87
82986;BME280;72786;53.546;9.910;2024-01-30T03:26:09;102019.50;;;6.46;81.32
82986;BME280;72786;53.546;9.910;2024-01-30T03:28:37;102047.09;;;6.55;81.28
82986;BME280;72786;53.546;9.910;2024-01-30T03:31:03;102025.19;;;6.50;81.30
82986;BME280;72786;53.546;9.910;2024-01-30T03:33:30;101971.00;;;6.19;81.29
82986;BME280;72786;53.546;9.910;2024-01-30T03:35:56;102024.28;;;6.50;82.37
82986;BME280;72786;53.546;9.910;2024-01-30T03:38:23;102024.47;;;6.51;81.95
82986;BME280;72786;53.546;9.910;2024-01-30T03:40:49;102027.75;;;6.50;82.56
82986;BME280;72786;53.546;9.910;2024-01-30T03:43:15;102027.75;;;6.50;82.57
82986;BME280;72786;53.546;9.910;2024-01-30T03:45:42;102020.63;;;6.48;82.42
82986;BME280;72786;53.546;9.910;2024-01-30T03:48:08;102026.78;;;6.43;81.53
82986;BME280;72786;53.546;9.910;2024-01-30T03:50:35;101992.13;;;6.18;82.17
82986;BME280;72786;53.546;9.910;2024-01-30T03:53:01;101991.94;;;6.17;82.26
82986;BME280;72786;53.546;9.910;2024-01-30T03:55:28;102024.66;;;6.33;82.77
82986;BME280;72786;53.546;9.910;2024-01-30T03:57:54;102016.66;;;6.30;83.13
82986;BME280;72786;53.546;9.910;2024-01-30T04:00:21;102011.16;;;6.27;83.44
82986;BME280;72786;53.546;9.910;2024-01-30T04:02:47;102013.69;;;6.27;83.12
82986;BME280;72786;53.546;9.910;2024-01-30T04:05:14;101978.94;;;6.08;83.51
82986;BME280;72786;53.546;9.910;2024-01-30T04:07:40;102005.28;;;6.21;83.61
82986;BME280;72786;53.546;9.910;2024-01-30T04:10:07;102014.41;;;6.26;83.52
82986;BME280;72786;53.546;9.910;2024-01-30T04:12:34;102007.47;;;6.25;82.61
82986;BME280;72786;53.546;9.910;2024-01-30T04:15:00;102012.22;;;6.22;83.08
82986;BME280;72786;53.546;9.910;2024-01-30T04:17:27;102004.88;;;6.18;84.02
82986;BME280;72786;53.546;9.910;2024-01-30T04:19:55;102009.97;;;6.18;83.24
82986;BME280;72786;53.546;9.910;2024-01-30T04:22:21;101979.66;;;6.07;83.78
82986;BME280;72786;53.546;9.910;2024-01-30T04:24:48;102013.25;;;6.17;83.58
82986;BME280;72786;53.546;9.910;2024-01-30T04:27:14;102009.97;;;6.18;83.15
82986;BME280;72786;53.546;9.910;2024-01-30T04:29:41;102020.56;;;6.21;83.11
82986;BME280;72786;53.546;9.910;2024-01-30T04:32:07;102018.38;;;6.17;83.69
82986;BME280;72786;53.546;9.910;2024-01-30T04:34:34;102018.38;;;6.17;83.14
82986;BME280;72786;53.546;9.910;2024-01-30T04:37:00;102015.22;;;6.13;83.71
82986;BME280;72786;53.546;9.910;2024-01-30T04:39:26;102016.31;;;6.15;83.89
82986;BME280;72786;53.546;9.910;2024-01-30T04:41:53;101994.53;;;6.04;83.48
82986;BME280;72786;53.546;9.910;2024-01-30T04:44:20;101990.50;;;5.99;83.87
82986;BME280;72786;53.546;9.910;2024-01-30T04:46:46;102017.81;;;6.00;84.12
82986;BME280;72786;53.546;9.910;2024-01-30T04:49:12;102012.72;;;6.00;83.85
82986;BME280;72786;53.546;9.910;2024-01-30T04:51:39;102022.81;;;6.06;83.51
82986;BME280;72786;53.546;9.910;2024-01-30T04:54:05;102031.16;;;6.05;83.69
82986;BME280;72786;53.546;9.910;2024-01-30T04:56:32;101987.09;;;5.87;83.70
82986;BME280;72786;53.546;9.910;2024-01-30T04:58:58;102021.81;;;5.98;84.15
82986;BME280;72786;53.546;9.910;2024-01-30T05:01:25;102015.63;;;5.97;83.83
82986;BME280;72786;53.546;9.910;2024-01-30T05:03:51;102025.28;;;5.99;84.03
82986;BME280;72786;53.546;9.910;2024-01-30T05:06:27;102001.34;;;5.92;83.89
82986;BME280;72786;53.546;9.910;2024-01-30T05:08:54;102003.78;;;5.97;84.43
82986;BME280;72786;53.546;9.910;2024-01-30T05:11:20;102009.78;;;5.97;84.32
82986;BME280;72786;53.546;9.910;2024-01-30T05:13:47;102004.66;;;5.97;84.25
82986;BME280;72786;53.546;9.910;2024-01-30T05:16:13;101975.41;;;5.82;84.67
82986;BME280;72786;53.546;9.910;2024-01-30T05:18:40;102011.81;;;6.00;84.77
82986;BME280;72786;53.546;9.910;2024-01-30T05:21:06;101987.09;;;5.87;84.71
82986;BME280;72786;53.546;9.910;2024-01-30T05:23:33;102010.88;;;5.99;84.59
82986;BME280;72786;53.546;9.910;2024-01-30T05:25:59;102013.97;;;5.97;85.10
82986;BME280;72786;53.546;9.910;2024-01-30T05:28:28;102017.28;;;6.03;85.17
82986;BME280;72786;53.546;9.910;2024-01-30T05:30:56;102019.66;;;6.01;85.26
82986;BME280;72786;53.546;9.910;2024-01-30T05:33:22;102020.97;;;6.05;85.35
82986;BME280;72786;53.546;9.910;2024-01-30T05:35:49;101980.16;;;5.86;85.25
82986;BME280;72786;53.546;9.910;2024-01-30T05:38:16;102000.88;;;6.01;85.40
82986;BME280;72786;53.546;9.910;2024-01-30T05:40:42;102005.50;;;6.03;85.23
82986;BME280;72786;53.546;9.910;2024-01-30T05:43:08;102000.38;;;6.03;84.86
82986;BME280;72786;53.546;9.910;2024-01-30T05:45:35;102004.19;;;6.00;85.43
82986;BME280;72786;53.546;9.910;2024-01-30T05:48:02;101989.72;;;5.94;85.11
82986;BME280;72786;53.546;9.910;2024-01-30T05:50:29;102007.03;;;5.96;85.43
82986;BME280;72786;53.546;9.910;2024-01-30T05:52:56;101989.53;;;5.92;85.42
82986;BME280;72786;53.546;9.910;2024-01-30T05:55:22;101969.50;;;5.76;85.45
82986;BME280;72786;53.546;9.910;2024-01-30T05:57:49;101962.88;;;5.71;85.90
82986;BME280;72786;53.546;9.910;2024-01-30T06:00:16;101985.69;;;5.89;85.84
82986;BME280;72786;53.546;9.910;2024-01-30T06:02:42;101991.16;;;5.92;85.57
82986;BME280;72786;53.546;9.910;2024-01-30T06:05:09;101980.94;;;5.92;85.93
82986;BME280;72786;53.546;9.910;2024-01-30T06:07:35;101979.94;;;5.97;85.50
82986;BME280;72786;53.546;9.910;2024-01-30T06:10:03;101983.44;;;6.04;85.88
82986;BME280;72786;53.546;9.910;2024-01-30T06:12:30;101987.25;;;6.00;86.09
82986;BME280;72786;53.546;9.910;2024-01-30T06:14:56;101982.91;;;6.06;85.51
82986;BME280;72786;53.546;9.910;2024-01-30T06:17:23;101986.06;;;6.11;85.39
82986;BME280;72786;53.546;9.910;2024-01-30T06:19:50;101971.66;;;6.11;85.24
82986;BME280;72786;53.546;9.910;2024-01-30T06:22:16;101978.53;;;6.05;85.37
82986;BME280;72786;53.546;9.910;2024-01-30T06:24:43;101970.50;;;6.02;85.42
82986;BME280;72786;53.546;9.910;2024-01-30T06:27:11;101971.28;;;6.08;85.50
82986;BME280;72786;53.546;9.910;2024-01-30T06:29:38;101970.75;;;6.11;85.16
82986;BME280;72786;53.546;9.910;2024-01-30T06:32:05;101912.09;;;5.85;86.09
82986;BME280;72786;53.546;9.910;2024-01-30T06:34:31;101959.72;;;6.17;85.30
82986;BME280;72786;53.546;9.910;2024-01-30T06:36:58;101933.06;;;6.08;85.17
82986;BME280;72786;53.546;9.910;2024-01-30T06:39:25;101959.97;;;6.26;85.62
82986;BME280;72786;53.546;9.910;2024-01-30T06:41:52;101950.88;;;6.28;85.24
82986;BME280;72786;53.546;9.910;2024-01-30T06:44:18;101947.75;;;6.23;85.57
82986;BME280;72786;53.546;9.910;2024-01-30T06:46:45;101967.06;;;6.28;85.31
82986;BME280;72786;53.546;9.910;2024-01-30T06:49:11;101952.84;;;6.23;85.69
82986;BME280;72786;53.546;9.910;2024-01-30T06:51:38;101967.06;;;6.28;85.84
82986;BME280;72786;53.546;9.910;2024-01-30T06:54:04;101967.47;;;6.31;85.84
82986;BME280;72786;53.546;9.910;2024-01-30T06:56:31;101954.34;;;6.28;86.24
82986;BME280;72786;53.546;9.910;2024-01-30T06:58:57;101947.22;;;6.26;85.57
82986;BME280;72786;53.546;9.910;2024-01-30T07:01:29;101949.56;;;6.24;86.25
82986;BME280;72786;53.546;9.910;2024-01-30T07:03:57;101949.56;;;6.24;86.24
82986;BME280;72786;53.546;9.910;2024-01-30T07:06:24;101946.22;;;6.18;86.40
82986;BME280;72786;53.546;9.910;2024-01-30T07:08:50;101932.47;;;6.04;86.51
82986;BME280;72786;53.546;9.910;2024-01-30T07:11:21;101974.28;;;6.18;86.98
82986;BME280;72786;53.546;9.910;2024-01-30T07:13:48;101958.31;;;6.26;86.77
82986;BME280;72786;53.546;9.910;2024-01-30T07:16:15;101965.66;;;6.30;87.36
82986;BME280;72786;53.546;9.910;2024-01-30T07:18:41;101926.53;;;6.10;86.83
82986;BME280;72786;53.546;9.910;2024-01-30T07:21:08;101966.00;;;6.33;87.59
82986;BME280;72786;53.546;9.910;2024-01-30T07:23:35;101956.81;;;6.41;86.91
82986;BME280;72786;53.546;9.910;2024-01-30T07:26:01;101920.78;;;6.25;87.76
82986;BME280;72786;53.546;9.910;2024-01-30T07:28:28;101957.75;;;6.48;87.76
82986;BME280;72786;53.546;9.910;2024-01-30T07:30:54;101957.44;;;6.52;87.22
82986;BME280;72786;53.546;9.910;2024-01-30T07:33:21;101965.09;;;6.52;87.24
82986;BME280;72786;53.546;9.910;2024-01-30T07:35:47;101955.69;;;6.65;86.71
82986;BME280;72786;53.546;9.910;2024-01-30T07:38:14;101948.78;;;6.71;86.50
82986;BME280;72786;53.546;9.910;2024-01-30T07:40:40;101962.50;;;6.78;85.75
82986;BME280;72786;53.546;9.910;2024-01-30T07:43:07;101960.16;;;6.80;86.46
82986;BME280;72786;53.546;9.910;2024-01-30T07:45:34;101957.78;;;6.81;86.48
82986;BME280;72786;53.546;9.910;2024-01-30T07:48:01;101958.72;;;6.89;85.91
82986;BME280;72786;53.546;9.910;2024-01-30T07:50:27;101957.28;;;6.91;85.23
82986;BME280;72786;53.546;9.910;2024-01-30T07:52:59;101961.31;;;6.96;85.53
82986;BME280;72786;53.546;9.910;2024-01-30T07:55:26;101958.44;;;7.00;85.28
82986;BME280;72786;53.546;9.910;2024-01-30T07:57:57;101951.09;;;6.96;85.34
82986;BME280;72786;53.546;9.910;2024-01-30T08:00:25;101947.09;;;6.98;85.72
82986;BME280;72786;53.546;9.910;2024-01-30T08:02:51;101935.44;;;6.93;85.78
82986;BME280;72786;53.546;9.910;2024-01-30T08:05:21;101925.53;;;6.89;85.54
82986;BME280;72786;53.546;9.910;2024-01-30T08:07:49;101938.59;;;7.04;85.68
82986;BME280;72786;53.546;9.910;2024-01-30T08:10:16;101943.16;;;7.07;85.13
82986;BME280;72786;53.546;9.910;2024-01-30T08:12:44;101938.75;;;7.06;85.41
82986;BME280;72786;53.546;9.910;2024-01-30T08:15:11;101946.81;;;7.09;85.13
82986;BME280;72786;53.546;9.910;2024-01-30T08:17:38;101935.84;;;7.03;84.71
82986;BME280;72786;53.546;9.910;2024-01-30T08:20:06;101922.13;;;6.95;85.55
82986;BME280;72786;53.546;9.910;2024-01-30T08:22:34;101954.66;;;7.10;85.69
82986;BME280;72786;53.546;9.910;2024-01-30T08:25:01;101924.53;;;7.01;84.77
82986;BME280;72786;53.546;9.910;2024-01-30T08:27:28;101949.41;;;7.23;84.89
82986;BME280;72786;53.546;9.910;2024-01-30T08:29:54;101949.44;;;7.30;85.02
82986;BME280;72786;53.546;9.910;2024-01-30T08:32:21;101944.31;;;7.23;84.53
82986;BME280;72786;53.546;9.910;2024-01-30T08:34:47;101944.69;;;7.33;84.18
82986;BME280;72786;53.546;9.910;2024-01-30T08:37:14;101936.69;;;7.37;84.07
82986;BME280;72786;53.546;9.910;2024-01-30T08:39:43;101948.34;;;7.35;83.98
82986;BME280;72786;53.546;9.910;2024-01-30T08:42:11;101947.44;;;7.27;84.85
82986;BME280;72786;53.546;9.910;2024-01-30T08:44:38;101934.47;;;7.33;85.11
82986;BME280;72786;53.546;9.910;2024-01-30T08:47:05;101913.69;;;7.37;85.26
82986;BME280;72786;53.546;9.910;2024-01-30T08:49:31;101920.66;;;7.45;84.88
82986;BME280;72786;53.546;9.910;2024-01-30T08:51:58;101905.34;;;7.45;84.77
82986;BME280;72786;53.546;9.910;2024-01-30T08:54:24;101896.19;;;7.53;84.03
82986;BME280;72786;53.546;9.910;2024-01-30T08:56:51;101901.88;;;7.65;84.26
82986;BME280;72786;53.546;9.910;2024-01-30T08:59:19;101906.66;;;7.62;84.84
82986;BME280;72786;53.546;9.910;2024-01-30T09:01:45;101903.53;;;7.71;83.14
82986;BME280;72786;53.546;9.910;2024-01-30T09:04:28;101898.03;;;7.68;83.66
82986;BME280;72786;53.546;9.910;2024-01-30T09:06:55;101910.09;;;7.62;83.32
82986;BME280;72786;53.546;9.910;2024-01-30T09:09:22;101902.03;;;7.59;83.42
82986;BME280;72786;53.546;9.910;2024-01-30T09:11:48;101915.22;;;7.62;83.84
82986;BME280;72786;53.546;9.910;2024-01-30T09:14:14;101923.44;;;7.67;83.82
82986;BME280;72786;53.546;9.910;2024-01-30T09:16:41;101867.72;;;7.44;83.79
82986;BME280;72786;53.546;9.910;2024-01-30T09:19:07;101898.75;;;7.60;84.89
82986;BME280;72786;53.546;9.910;2024-01-30T09:21:34;101917.44;;;7.80;84.20
82986;BME280;72786;53.546;9.910;2024-01-30T09:24:02;101926.56;;;7.92;83.57
82986;BME280;72786;53.546;9.910;2024-01-30T09:26:32;101936.97;;;8.01;83.51
82986;BME280;72786;53.546;9.910;2024-01-30T09:28:58;101936.41;;;8.10;82.39
82986;BME280;72786;53.546;9.910;2024-01-30T09:31:24;101937.94;;;8.15;82.59
82986;BME280;72786;53.546;9.910;2024-01-30T09:33:51;101937.00;;;8.15;82.84
82986;BME280;72786;53.546;9.910;2024-01-30T09:36:20;101942.50;;;8.18;82.84
82986;BME280;72786;53.546;9.910;2024-01-30T09:38:46;101927.28;;;8.12;82.08
82986;BME280;72786;53.546;9.910;2024-01-30T09:41:13;101941.03;;;8.20;81.93
82986;BME280;72786;53.546;9.910;2024-01-30T09:43:41;101944.13;;;8.24;82.87
82986;BME280;72786;53.546;9.910;2024-01-30T09:46:16;101939.38;;;8.27;83.15
82986;BME280;72786;53.546;9.910;2024-01-30T09:48:46;101907.03;;;8.21;82.20
82986;BME280;72786;53.546;9.910;2024-01-30T09:51:14;101929.16;;;8.34;82.54
82986;BME280;72786;53.546;9.910;2024-01-30T09:53:42;101922.38;;;8.34;81.88
82986;BME280;72786;53.546;9.910;2024-01-30T09:56:09;101922.91;;;8.46;81.27
82986;BME280;72786;53.546;9.910;2024-01-30T09:58:35;101889.66;;;8.39;81.42
82986;BME280;72786;53.546;9.910;2024-01-30T10:01:02;101909.00;;;8.58;81.62
82986;BME280;72786;53.546;9.910;2024-01-30T10:03:30;101908.25;;;8.59;81.96
82986;BME280;72786;53.546;9.910;2024-01-30T10:05:57;101898.91;;;8.66;80.70
82986;BME280;72786;53.546;9.910;2024-01-30T10:08:23;101881.88;;;8.74;80.56
82986;BME280;72786;53.546;9.910;2024-01-30T10:10:50;101899.78;;;8.81;79.81
82986;BME280;72786;53.546;9.910;2024-01-30T10:13:16;101855.59;;;8.61;79.32
82986;BME280;72786;53.546;9.910;2024-01-30T10:15:43;101907.81;;;8.91;79.50
82986;BME280;72786;53.546;9.910;2024-01-30T10:18:11;101904.13;;;8.89;79.73
82986;BME280;72786;53.546;9.910;2024-01-30T10:20:37;101909.97;;;8.95;79.96
82986;BME280;72786;53.546;9.910;2024-01-30T10:23:04;101871.25;;;8.85;80.04
82986;BME280;72786;53.546;9.910;2024-01-30T10:25:30;101901.72;;;9.04;79.61
82986;BME280;72786;53.546;9.910;2024-01-30T10:27:58;101906.66;;;9.02;79.51
82986;BME280;72786;53.546;9.910;2024-01-30T10:30:25;101906.59;;;9.09;79.78
82986;BME280;72786;53.546;9.910;2024-01-30T10:32:51;101899.66;;;9.08;79.39
82986;BME280;72786;53.546;9.910;2024-01-30T10:35:18;101897.31;;;9.03;79.43
82986;BME280;72786;53.546;9.910;2024-01-30T10:37:47;101910.69;;;9.01;79.18
82986;BME280;72786;53.546;9.910;2024-01-30T10:40:14;101889.81;;;9.04;80.60
82986;BME280;72786;53.546;9.910;2024-01-30T10:42:45;101860.22;;;8.93;79.43
82986;BME280;72786;53.546;9.910;2024-01-30T10:45:13;101892.31;;;9.18;79.66
82986;BME280;72786;53.546;9.910;2024-01-30T10:47:50;101877.97;;;9.27;79.48
82986;BME280;72786;53.546;9.910;2024-01-30T10:50:17;101880.50;;;9.34;79.29
82986;BME280;72786;53.546;9.910;2024-01-30T10:52:44;101854.38;;;9.23;79.73
82986;BME280;72786;53.546;9.910;2024-01-30T10:55:11;101852.31;;;9.34;79.46
82986;BME280;72786;53.546;9.910;2024-01-30T10:57:38;101878.00;;;9.50;78.91
82986;BME280;72786;53.546;9.910;2024-01-30T11:00:07;101851.69;;;9.44;79.27
82986;BME280;72786;53.546;9.910;2024-01-30T11:02:42;101871.03;;;9.78;78.55
82986;BME280;72786;53.546;9.910;2024-01-30T11:05:09;101878.31;;;9.82;79.33
82986;BME280;72786;53.546;9.910;2024-01-30T11:07:39;101876.06;;;9.92;78.74
82986;BME280;72786;53.546;9.910;2024-01-30T11:10:07;101877.47;;;9.97;77.90
82986;BME280;72786;53.546;9.910;2024-01-30T11:12:39;101870.31;;;10.01;77.61
82986;BME280;72786;53.546;9.910;2024-01-30T11:15:15;101869.00;;;10.05;78.84
82986;BME280;72786;53.546;9.910;2024-01-30T11:20:30;101876.00;;;10.21;79.25
82986;BME280;72786;53.546;9.910;2024-01-30T11:23:02;101880.63;;;10.17;78.32
82986;BME280;72786;53.546;9.910;2024-01-30T11:25:32;101858.34;;;10.09;77.87
82986;BME280;72786;53.546;9.910;2024-01-30T11:27:59;101887.28;;;10.30;77.67
82986;BME280;72786;53.546;9.910;2024-01-30T11:30:27;101882.38;;;10.25;78.21
82986;BME280;72786;53.546;9.910;2024-01-30T11:33:11;101894.00;;;10.37;77.12
82986;BME280;72786;53.546;9.910;2024-01-30T11:35:39;101892.66;;;10.40;77.27
82986;BME280;72786;53.546;9.910;2024-01-30T11:38:08;101866.84;;;10.39;78.49
82986;BME280;72786;53.546;9.910;2024-01-30T11:40:37;101845.94;;;10.36;78.56
82986;BME280;72786;53.546;9.910;2024-01-30T11:43:06;101872.56;;;10.52;78.06
82986;BME280;72786;53.546;9.910;2024-01-30T11:45:34;101863.63;;;10.48;77.68
82986;BME280;72786;53.546;9.910;2024-01-30T11:48:01;101873.66;;;10.53;78.04
82986;BME280;72786;53.546;9.910;2024-01-30T11:50:31;101835.53;;;10.34;78.08
82986;BME280;72786;53.546;9.910;2024-01-30T11:52:58;101875.13;;;10.52;79.39
82986;BME280;72786;53.546;9.910;2024-01-30T11:55:25;101867.69;;;10.61;79.00
82986;BME280;72786;53.546;9.910;2024-01-30T11:57:55;101833.16;;;10.51;78.73
82986;BME280;72786;53.546;9.910;2024-01-30T12:00:22;101846.06;;;10.59;79.19
82986;BME280;72786;53.546;9.910;2024-01-30T12:02:53;101859.25;;;10.62;79.02
82986;BME280;72786;53.546;9.910;2024-01-30T12:05:23;101864.38;;;10.62;78.93
82986;BME280;72786;53.546;9.910;2024-01-30T12:07:50;101862.88;;;10.64;78.87
82986;BME280;72786;53.546;9.910;2024-01-30T12:10:16;101851.13;;;10.66;78.75
82986;BME280;72786;53.546;9.910;2024-01-30T12:12:49;101844.81;;;10.56;78.89
82986;BME280;72786;53.546;9.910;2024-01-30T12:15:17;101858.31;;;10.62;78.08
82986;BME280;72786;53.546;9.910;2024-01-30T12:17:44;101829.66;;;10.51;77.95
82986;BME280;72786;53.546;9.910;2024-01-30T12:20:12;101847.16;;;10.61;78.12
82986;BME280;72786;53.546;9.910;2024-01-30T12:22:47;101852.94;;;10.67;78.34
82986;BME280;72786;53.546;9.910;2024-01-30T12:25:16;101836.03;;;10.69;78.02
82986;BME280;72786;53.546;9.910;2024-01-30T12:27:44;101850.38;;;10.67;79.07
82986;BME280;72786;53.546;9.910;2024-01-30T12:30:12;101850.59;;;10.77;78.45
82986;BME280;72786;53.546;9.910;2024-01-30T12:32:44;101855.34;;;10.81;78.66
82986;BME280;72786;53.546;9.910;2024-01-30T12:35:17;101858.25;;;10.84;78.78
82986;BME280;72786;53.546;9.910;2024-01-30T12:37:44;101847.28;;;10.78;78.27
82986;BME280;72786;53.546;9.910;2024-01-30T12:40:12;101854.91;;;10.85;78.03
82986;BME280;72786;53.546;9.910;2024-01-30T12:42:41;101851.44;;;10.85;78.71
82986;BME280;72786;53.546;9.910;2024-01-30T12:45:09;101850.69;;;10.86;79.15
82986;BME280;72786;53.546;9.910;2024-01-30T12:47:35;101860.38;;;10.88;79.13
82986;BME280;72786;53.546;9.910;2024-01-30T12:50:03;101848.78;;;10.92;79.03
82986;BME280;72786;53.546;9.910;2024-01-30T12:52:30;101853.34;;;10.94;78.64
82986;BME280;72786;53.546;9.910;2024-01-30T12:54:56;101847.44;;;10.95;77.59
82986;BME280;72786;53.546;9.910;2024-01-30T12:57:23;101835.69;;;10.97;78.84
82986;BME280;72786;53.546;9.910;2024-01-30T12:59:49;101847.44;;;10.95;78.01
82986;BME280;72786;53.546;9.910;2024-01-30T13:02:16;101843.78;;;10.93;78.02